Time;durP1;ratioP1;P1;durP2;ratioP2;P2;SDS_P1;SDS_P2;PMS_P1;PMS_P2;Temp;Humidity;BMP_temperature;BMP_pressure;BME280_temperature;BME280_humidity;BME280_pressure;Samples;Min_cycle;Max_cycle;Signal;HPM_P1;HPM_P2
2022/06/10 00:01:10;;;;;;;6.07;3.72;;;;;;;15.13;71.63;99293.16;5004148;28;20026;-78
2022/06/10 00:03:36;;;;;;;9.55;4.25;;;;;;;15.12;71.26;99282.66;5002447;28;20049;-78
2022/06/10 00:06:06;;;;;;;6.53;4.03;;;;;;;15.06;71.81;99283.72;5002373;28;21716;-78
2022/06/10 00:08:35;;;;;;;4.53;3.47;;;;;;;14.92;72.46;99284.25;5003098;28;20049;-78
2022/06/10 00:11:01;;;;;;;7.43;4.25;;;;;;;14.82;72.36;99268.09;5001501;28;20103;-79
2022/06/10 00:13:32;;;;;;;6.20;3.75;;;;;;;14.96;72.28;99290.69;4999776;28;20041;-78
2022/06/10 00:15:59;;;;;;;4.93;4.03;;;;;;;14.97;72.13;99286.94;5018673;28;20104;-78
2022/06/10 00:18:28;;;;;;;4.55;3.35;;;;;;;14.94;72.14;99300.09;5000477;28;20084;-78
2022/06/10 00:20:53;;;;;;;8.63;6.25;;;;;;;14.63;74.47;99299.22;5002174;28;20033;-79
2022/06/10 00:23:19;;;;;;;6.38;4.07;;;;;;;14.88;72.39;99293.91;5000070;28;20654;-78
2022/06/10 00:25:45;;;;;;;9.30;6.25;;;;;;;14.90;72.89;99305.22;5003222;28;20097;-78
2022/06/10 00:28:12;;;;;;;5.30;4.18;;;;;;;14.68;73.05;99290.34;5003540;28;20033;-79
2022/06/10 00:30:38;;;;;;;5.97;4.10;;;;;;;14.53;73.57;99304.53;5001047;28;20034;-78
2022/06/10 00:33:04;;;;;;;8.18;6.18;;;;;;;14.42;75.11;99304.75;4999795;28;20425;-78
2022/06/10 00:35:30;;;;;;;6.05;4.30;;;;;;;14.30;74.74;99310.34;4984844;28;20029;-78
2022/06/10 00:37:56;;;;;;;12.50;7.90;;;;;;;13.92;77.45;99321.34;5004322;28;20362;-78
2022/06/10 00:40:32;;;;;;;7.80;5.85;;;;;;;13.79;78.26;99313.75;5017257;28;20049;-78
2022/06/10 00:42:58;;;;;;;13.80;8.85;;;;;;;13.33;80.14;99310.72;5001183;28;20030;-78
2022/06/10 00:45:59;;;;;;;11.15;8.55;;;;;;;13.07;82.32;99314.22;5002228;28;20048;-78
2022/06/10 00:48:45;;;;;;;11.95;9.10;;;;;;;12.86;82.82;99322.28;5001331;28;20032;-78
2022/06/10 00:51:10;;;;;;;12.50;9.63;;;;;;;12.74;83.27;99319.72;5004263;28;20469;-78
2022/06/10 00:53:36;;;;;;;8.38;6.35;;;;;;;12.70;83.08;99306.03;5000590;28;20026;-78
2022/06/10 00:56:07;;;;;;;12.70;7.43;;;;;;;13.30;79.99;99324.63;4999445;28;20038;-78
2022/06/10 00:58:37;;;;;;;10.50;8.07;;;;;;;13.32;79.67;99335.88;5001713;28;20608;-79
2022/06/10 01:01:03;;;;;;;12.30;7.65;;;;;;;13.02;80.72;99316.81;5002571;28;20470;-78
2022/06/10 01:03:30;;;;;;;5.50;4.40;;;;;;;13.20;79.63;99327.22;5006646;28;20040;-79
2022/06/10 01:05:55;;;;;;;8.88;7.50;;;;;;;13.17;79.74;99333.06;5000940;28;20037;-79
2022/06/10 01:08:22;;;;;;;6.63;4.18;;;;;;;13.62;77.46;99331.88;5002023;28;20064;-78
2022/06/10 01:11:36;;;;;;;11.50;6.25;;;;;;;13.63;76.79;99315.50;4999852;28;20498;-79
2022/06/10 01:14:39;;;;;;;9.07;6.68;;;;;;;13.51;77.17;99320.25;4976171;28;20037;-78
2022/06/10 01:17:53;;;;;;;5.22;4.45;;;;;;;13.46;77.13;99326.38;4983156;28;20124;-78
2022/06/10 01:20:39;;;;;;;4.93;4.40;;;;;;;13.77;75.82;99334.66;4996722;28;20049;-79
2022/06/10 01:23:42;;;;;;;11.57;8.13;;;;;;;13.74;76.37;99330.63;5004700;28;20034;-78
2022/06/10 01:29:56;;;;;;;10.80;8.50;;;;;;;13.85;75.29;99328.81;4993040;28;20520;-78
2022/06/10 01:33:01;;;;;;;5.88;4.78;;;;;;;14.64;71.78;99335.75;4992167;28;20041;-78
2022/06/10 01:35:45;;;;;;;5.25;4.57;;;;;;;14.85;70.65;99323.22;4967499;28;20042;-78
2022/06/10 01:38:26;;;;;;;7.50;4.25;;;;;;;14.81;70.74;99330.97;5002213;28;20069;-78
2022/06/10 01:41:01;;;;;;;13.00;8.63;;;;;;;14.13;73.63;99331.19;5003134;28;20057;-79
2022/06/10 01:43:45;;;;;;;9.80;8.90;;;;;;;13.57;76.00;99337.19;5001953;28;20374;-78
2022/06/10 01:46:25;;;;;;;12.48;8.45;;;;;;;13.83;75.06;99342.50;5000491;28;20034;-79
2022/06/10 01:49:06;;;;;;;9.45;8.38;;;;;;;13.70;75.18;99332.22;5003168;28;20075;-78
2022/06/10 01:52:06;;;;;;;8.55;5.05;;;;;;;13.85;74.52;99340.38;5017623;28;20037;-78
2022/06/10 01:54:48;;;;;;;7.53;5.05;;;;;;;14.06;74.09;99336.78;5000143;28;20029;-78
2022/06/10 01:57:24;;;;;;;6.45;4.80;;;;;;;13.92;73.18;99335.59;5000850;28;20436;-78
2022/06/10 02:00:01;;;;;;;11.88;5.68;;;;;;;13.89;74.16;99335.31;5002823;28;20026;-78
2022/06/10 02:02:33;;;;;;;11.80;7.25;;;;;;;13.83;73.79;99344.38;5001477;28;20045;-78
2022/06/10 02:05:06;;;;;;;8.23;4.95;;;;;;;14.67;71.09;99343.31;5000980;28;20490;-78
2022/06/10 02:07:36;;;;;;;6.40;5.15;;;;;;;14.58;70.78;99342.19;5008287;28;20037;-78
2022/06/10 02:10:15;;;;;;;8.73;5.15;;;;;;;14.35;71.82;99339.91;5001954;28;20155;-78
2022/06/10 02:12:45;;;;;;;5.35;4.85;;;;;;;14.79;70.37;99343.88;5000545;28;20125;-78
2022/06/10 02:15:26;;;;;;;9.45;5.53;;;;;;;14.58;70.36;99347.56;5019625;28;20037;-78
2022/06/10 02:18:01;;;;;;;6.15;5.05;;;;;;;13.84;72.93;99343.31;5004148;28;20038;-79
2022/06/10 02:20:30;;;;;;;6.07;4.63;;;;;;;14.31;71.81;99344.19;5008738;28;20030;-78
2022/06/10 02:23:00;;;;;;;5.93;4.85;;;;;;;14.57;70.72;99347.81;5022050;28;20128;-78
2022/06/10 02:25:30;;;;;;;6.22;4.88;;;;;;;14.57;70.10;99347.81;5005422;28;20041;-78
2022/06/10 02:28:00;;;;;;;5.65;4.85;;;;;;;14.80;69.40;99355.44;5003965;28;20083;-79
2022/06/10 02:30:29;;;;;;;9.15;6.07;;;;;;;14.59;70.59;99348.38;5002788;28;20091;-78
2022/06/10 02:32:56;;;;;;;8.15;5.47;;;;;;;14.63;70.15;99357.53;5004360;28;20111;-78
2022/06/10 02:35:27;;;;;;;8.55;4.85;;;;;;;14.55;70.10;99347.25;5006541;28;20073;-78
2022/06/10 02:38:28;;;;;;;7.70;6.40;;;;;;;14.53;70.83;99358.28;4998071;28;20063;-78
2022/06/10 02:41:02;;;;;;;8.55;5.70;;;;;;;14.49;70.70;99351.00;4962049;28;20058;-78
2022/06/10 02:43:43;;;;;;;11.75;5.65;;;;;;;14.74;69.73;99359.19;5009580;28;20386;-78
2022/06/10 02:46:11;;;;;;;7.13;6.10;;;;;;;14.76;69.28;99363.22;5004449;28;20490;-78
2022/06/10 02:48:42;;;;;;;7.40;6.30;;;;;;;14.44;70.31;99373.25;5006714;28;20386;-79
2022/06/10 02:51:07;;;;;;;7.50;5.78;;;;;;;14.50;70.22;99369.56;5001973;28;20033;-78
2022/06/10 02:53:32;;;;;;;7.47;6.00;;;;;;;14.65;70.18;99369.63;5002478;28;20421;-78
2022/06/10 02:55:58;;;;;;;7.78;6.22;;;;;;;14.48;70.32;99371.66;5005546;28;20032;-78
2022/06/10 03:01:27;;;;;;;14.60;8.43;;;;;;;13.23;75.32;99369.59;5004543;28;20496;-78
2022/06/10 03:04:17;;;;;;;9.00;7.78;;;;;;;13.04;76.16;99373.63;5005786;28;20029;-78
2022/06/10 03:07:17;;;;;;;16.02;13.00;;;;;;;13.16;75.75;99381.56;5001864;28;20037;-78
2022/06/10 03:09:53;;;;;;;8.82;7.25;;;;;;;13.67;73.60;99389.06;5002811;28;20034;-79
2022/06/10 03:12:18;;;;;;;7.90;7.10;;;;;;;13.67;73.38;99385.56;5000580;28;20505;-78
2022/06/10 03:15:02;;;;;;;9.60;6.97;;;;;;;13.98;71.76;99366.75;5006591;28;20037;-78
2022/06/10 03:18:00;;;;;;;10.10;7.57;;;;;;;14.09;71.85;99389.13;5001896;28;20030;-78
2022/06/10 03:20:32;;;;;;;10.30;7.32;;;;;;;14.27;70.98;99384.16;5004831;28;20175;-78
2022/06/10 03:23:22;;;;;;;7.88;7.18;;;;;;;14.14;71.46;99397.22;5004239;28;20041;-78
2022/06/10 03:25:50;;;;;;;10.75;6.55;;;;;;;14.30;70.70;99392.78;5020330;28;20056;-78
2022/06/10 03:28:23;;;;;;;8.25;7.38;;;;;;;14.20;70.66;99393.50;5003294;28;20026;-78
2022/06/10 03:31:02;;;;;;;8.60;7.78;;;;;;;13.91;72.31;99393.00;5001114;28;20516;-78
2022/06/10 03:33:34;;;;;;;12.02;8.05;;;;;;;14.20;70.82;99390.81;5001293;28;20029;-79
2022/06/10 03:36:27;;;;;;;11.02;8.90;;;;;;;13.50;73.75;99396.41;4988355;28;20037;-78
2022/06/10 03:38:53;;;;;;;14.95;12.20;;;;;;;13.34;74.97;99392.78;5004125;28;20048;-78
2022/06/10 03:41:24;;;;;;;12.27;8.50;;;;;;;13.39;74.42;99408.91;5003896;28;20041;-78
2022/06/10 03:43:52;;;;;;;17.50;13.57;;;;;;;12.34;78.59;99408.34;5001095;28;20148;-78
2022/06/10 03:46:20;;;;;;;22.05;12.38;;;;;;;12.99;76.06;99415.66;5000707;28;20029;-78
2022/06/10 03:48:47;;;;;;;15.98;10.98;;;;;;;12.62;77.27;99423.50;5004280;28;20081;-78
2022/06/10 03:51:14;;;;;;;17.85;13.38;;;;;;;12.70;77.27;99423.06;4985947;28;20128;-78
2022/06/10 03:53:40;;;;;;;12.02;9.60;;;;;;;13.02;75.38;99415.16;5003840;28;20125;-78
2022/06/10 03:56:06;;;;;;;11.43;8.57;;;;;;;13.38;75.74;99423.38;5012232;28;20117;-78
2022/06/10 03:58:31;;;;;;;10.13;7.78;;;;;;;14.13;71.60;99417.09;5006899;28;20033;-78
2022/06/10 04:00:58;;;;;;;13.40;9.27;;;;;;;13.38;74.89;99423.38;4988615;28;20029;-78
2022/06/10 04:03:25;;;;;;;14.63;11.20;;;;;;;13.54;74.71;99422.47;5002958;28;20370;-78
2022/06/10 04:05:51;;;;;;;13.73;10.60;;;;;;;13.12;76.97;99432.22;5007268;28;20034;-78
2022/06/10 04:08:16;;;;;;;18.45;14.02;;;;;;;13.21;77.62;99436.06;5002581;28;20033;-78
2022/06/10 04:10:43;;;;;;;12.32;10.65;;;;;;;12.90;78.57;99434.03;5001265;28;20033;-78
2022/06/10 04:13:10;;;;;;;15.65;13.80;;;;;;;12.69;80.87;99441.00;5005925;28;20022;-78
2022/06/10 04:15:36;;;;;;;18.13;14.93;;;;;;;12.75;81.11;99441.88;5008147;28;20041;-78
2022/06/10 04:18:04;;;;;;;24.58;15.88;;;;;;;12.89;81.59;99437.78;5007574;28;20107;-78
2022/06/10 04:20:35;;;;;;;16.65;12.93;;;;;;;13.17;80.48;99445.66;5006248;28;20370;-78
2022/06/10 04:23:01;;;;;;;16.48;14.48;;;;;;;13.61;78.67;99446.41;5001311;28;20041;-78
2022/06/10 04:25:27;;;;;;;9.40;8.30;;;;;;;13.84;77.06;99450.66;5005738;28;20030;-78
2022/06/10 04:27:53;;;;;;;13.00;9.52;;;;;;;13.66;79.82;99451.00;4988628;28;20029;-78
2022/06/10 04:30:29;;;;;;;20.98;14.52;;;;;;;13.68;80.78;99447.00;5010281;28;20017;-78
2022/06/10 04:32:55;;;;;;;25.30;16.98;;;;;;;13.74;81.45;99450.56;5008638;28;20038;-78
2022/06/10 04:35:22;;;;;;;11.20;10.07;;;;;;;13.87;81.18;99455.53;5010360;28;20537;-78
2022/06/10 04:37:48;;;;;;;16.88;14.40;;;;;;;13.84;82.13;99451.47;5017989;28;20124;-78
2022/06/10 04:40:18;;;;;;;12.18;8.25;;;;;;;14.04;80.44;99459.66;4990053;28;20033;-78
2022/06/10 04:42:46;;;;;;;8.77;7.88;;;;;;;14.26;80.35;99454.22;5007073;28;20069;-78
2022/06/10 04:45:12;;;;;;;10.05;8.00;;;;;;;14.51;78.21;99456.31;5008894;28;20030;-78
2022/06/10 04:47:38;;;;;;;13.55;11.48;;;;;;;14.59;80.00;99453.16;5005225;28;20096;-78
2022/06/10 04:50:05;;;;;;;11.15;7.93;;;;;;;14.82;77.35;99452.72;5007200;28;20018;-78
2022/06/10 04:52:31;;;;;;;17.88;12.45;;;;;;;14.96;78.20;99451.19;5006412;28;20486;-78
2022/06/10 04:54:57;;;;;;;17.42;12.30;;;;;;;14.84;79.34;99451.41;5008120;28;20029;-78
2022/06/10 04:57:22;;;;;;;11.40;9.18;;;;;;;15.18;76.18;99445.66;5003185;28;20040;-78
2022/06/10 04:59:48;;;;;;;20.92;10.30;;;;;;;15.07;78.97;99466.28;4987432;28;20033;-78
2022/06/10 05:02:14;;;;;;;10.30;7.03;;;;;;;15.28;74.29;99469.88;4995683;28;20045;-78
2022/06/10 05:04:41;;;;;;;12.27;8.90;;;;;;;15.77;72.89;99468.41;4997646;28;20084;-78
2022/06/10 05:07:06;;;;;;;16.35;9.13;;;;;;;15.89;72.36;99463.59;4999639;28;20042;-78
2022/06/10 05:09:31;;;;;;;15.80;9.95;;;;;;;15.64;75.60;99488.56;5000887;28;20668;-78
2022/06/10 05:11:57;;;;;;;16.38;11.32;;;;;;;14.72;77.08;99468.81;5005778;28;20042;-78
2022/06/10 05:14:22;;;;;;;13.20;10.40;;;;;;;14.95;77.65;99484.53;5006237;28;20026;-78
2022/06/10 05:16:48;;;;;;;18.02;10.98;;;;;;;14.89;77.51;99477.50;5020341;28;20088;-78
2022/06/10 05:19:13;;;;;;;11.80;10.40;;;;;;;15.09;77.43;99474.94;5007363;28;20030;-78
2022/06/10 05:21:39;;;;;;;12.77;9.75;;;;;;;14.91;78.28;99473.50;5003867;28;20029;-78
2022/06/10 05:24:04;;;;;;;15.57;11.02;;;;;;;14.93;78.06;99475.91;4989259;28;20474;-78
2022/06/10 05:26:32;;;;;;;12.10;8.98;;;;;;;15.53;74.84;99470.00;5008051;28;20044;-78
2022/06/10 05:28:58;;;;;;;10.32;7.35;;;;;;;15.73;73.28;99480.78;4991697;28;20034;-78
2022/06/10 05:31:24;;;;;;;15.63;9.40;;;;;;;15.83;74.71;99478.13;5006801;28;20042;-78
2022/06/10 05:36:33;;;;;;;12.13;10.70;;;;;;;14.86;78.63;99481.50;4985412;28;20512;-78
2022/06/10 05:38:58;;;;;;;12.10;8.60;;;;;;;14.72;79.91;99452.69;5006788;28;20030;-78
2022/06/10 05:44:09;;;;;;;14.82;11.40;;;;;;;15.34;78.91;99479.56;5010294;28;20056;-78
2022/06/10 05:46:35;;;;;;;12.93;8.63;;;;;;;15.52;77.55;99481.81;5007743;28;20453;-78
2022/06/10 05:49:01;;;;;;;13.60;10.18;;;;;;;15.55;78.61;99471.31;5011205;28;20129;-78
2022/06/10 05:51:27;;;;;;;10.35;8.02;;;;;;;15.45;79.83;99475.88;4979347;28;20069;-78
2022/06/10 05:53:52;;;;;;;11.55;8.35;;;;;;;15.71;77.35;99474.88;5003922;28;20500;-78
2022/06/10 05:56:18;;;;;;;9.65;7.38;;;;;;;15.99;74.03;99470.91;4995086;28;20038;-78
2022/06/10 05:58:43;;;;;;;13.88;10.45;;;;;;;16.02;76.89;99473.03;5010625;28;20059;-79
2022/06/10 06:01:08;;;;;;;15.85;7.40;;;;;;;16.18;74.91;99486.25;5004920;28;20030;-79
2022/06/10 06:03:34;;;;;;;9.55;8.73;;;;;;;16.53;74.65;99479.25;5010905;28;20099;-78
2022/06/10 06:06:00;;;;;;;14.38;10.32;;;;;;;16.12;76.93;99481.91;5011365;28;20129;-78
2022/06/10 06:08:25;;;;;;;13.93;12.48;;;;;;;16.40;75.65;99484.06;4992445;28;20504;-79
2022/06/10 06:10:51;;;;;;;7.38;6.15;;;;;;;15.95;76.66;99491.31;5009027;28;20038;-78
2022/06/10 06:13:16;;;;;;;12.90;11.60;;;;;;;15.70;79.22;99489.41;5008004;28;20041;-78
2022/06/10 06:15:41;;;;;;;9.65;7.40;;;;;;;16.01;77.47;99495.66;5010699;28;20034;-79
2022/06/10 06:18:07;;;;;;;15.73;11.55;;;;;;;15.95;78.52;99492.13;4992226;28;20108;-78
2022/06/10 06:20:32;;;;;;;17.25;12.82;;;;;;;16.06;79.75;99490.25;5024173;28;20101;-78
2022/06/10 06:22:58;;;;;;;15.93;10.70;;;;;;;16.06;79.46;99492.94;5006759;28;20034;-79
2022/06/10 06:25:23;;;;;;;13.45;8.57;;;;;;;16.30;75.71;99491.34;5004213;28;20038;-78
2022/06/10 06:27:50;;;;;;;10.93;6.78;;;;;;;16.26;75.79;99488.41;5012019;28;20033;-78
2022/06/10 06:30:17;;;;;;;17.17;10.15;;;;;;;16.41;78.91;99498.34;5010698;28;20022;-78
2022/06/10 06:32:42;;;;;;;17.65;10.27;;;;;;;16.34;78.69;99484.34;5008864;28;20025;-78
2022/06/10 06:35:09;;;;;;;14.52;10.20;;;;;;;16.38;78.24;99498.91;5003913;28;20045;-78
2022/06/10 06:37:34;;;;;;;13.05;10.02;;;;;;;16.68;75.56;99500.78;5009830;28;20033;-78
2022/06/10 06:40:00;;;;;;;13.73;11.35;;;;;;;16.40;78.26;99504.84;5009304;28;20038;-78
2022/06/10 06:42:25;;;;;;;15.90;9.20;;;;;;;16.58;77.96;99487.34;5004441;28;20185;-78
2022/06/10 06:44:51;;;;;;;13.32;6.00;;;;;;;16.96;73.17;99492.09;4964708;28;20124;-78
2022/06/10 06:47:16;;;;;;;6.30;5.45;;;;;;;17.43;70.83;99495.16;4990304;28;20540;-78
2022/06/10 06:49:42;;;;;;;12.20;6.32;;;;;;;17.53;72.40;99508.66;5005255;28;20042;-79
2022/06/10 06:52:08;;;;;;;12.55;7.97;;;;;;;17.31;73.08;99492.00;5009190;28;20045;-78
2022/06/10 06:54:37;;;;;;;6.93;4.80;;;;;;;17.54;70.69;99490.56;4996943;28;20019;-78
2022/06/10 06:57:03;;;;;;;11.90;7.13;;;;;;;17.11;74.92;99508.25;4993798;28;20042;-78
2022/06/10 06:59:29;;;;;;;12.82;8.88;;;;;;;17.01;74.98;99509.09;5009261;28;20030;-78
2022/06/10 07:01:55;;;;;;;13.20;9.40;;;;;;;17.18;74.88;99509.59;5006373;28;20022;-78
2022/06/10 07:04:20;;;;;;;11.80;9.05;;;;;;;16.97;74.54;99493.72;5004587;28;20087;-78
2022/06/10 07:06:46;;;;;;;17.30;9.13;;;;;;;16.89;74.02;99495.09;4987458;28;20125;-78
2022/06/10 07:09:11;;;;;;;14.75;9.10;;;;;;;16.42;74.38;99506.16;5008186;28;20033;-78
2022/06/10 07:11:38;;;;;;;12.52;7.30;;;;;;;16.85;74.79;99491.31;4991065;28;20456;-78
2022/06/10 07:14:04;;;;;;;8.65;5.15;;;;;;;17.73;70.94;99505.03;5010218;28;20108;-78
2022/06/10 07:16:30;;;;;;;12.50;5.15;;;;;;;17.75;70.31;99509.09;5011043;28;20034;-78
2022/06/10 07:18:55;;;;;;;5.63;4.45;;;;;;;18.02;69.65;99502.44;5004266;28;20036;-78
2022/06/10 07:21:21;;;;;;;7.40;4.72;;;;;;;18.32;68.35;99510.31;5009218;28;20033;-79
2022/06/10 07:23:46;;;;;;;9.27;4.63;;;;;;;18.32;68.04;99497.63;4991201;28;20528;-78
2022/06/10 07:26:12;;;;;;;8.32;3.97;;;;;;;18.40;67.34;99499.69;5007440;28;20030;-79
2022/06/10 07:28:37;;;;;;;11.18;3.95;;;;;;;18.47;66.46;99502.09;4986218;28;20033;-79
2022/06/10 07:31:04;;;;;;;11.27;4.88;;;;;;;18.41;68.31;99500.50;5010938;28;20025;-79
2022/06/10 07:33:30;;;;;;;8.55;3.72;;;;;;;18.42;67.02;99502.91;4993426;28;20120;-78
2022/06/10 07:35:55;;;;;;;6.20;3.00;;;;;;;18.43;67.03;99509.97;4991787;28;20429;-79
2022/06/10 07:38:22;;;;;;;7.38;3.17;;;;;;;18.70;66.14;99506.75;5004247;28;20109;-78
2022/06/10 07:43:33;;;;;;;8.50;4.05;;;;;;;18.43;68.57;99507.25;5011472;28;20381;-79
2022/06/10 07:46:00;;;;;;;7.10;3.67;;;;;;;18.83;65.55;99508.78;5006818;28;20034;-78
2022/06/10 07:48:26;;;;;;;8.77;3.30;;;;;;;18.73;66.27;99506.19;5004378;28;20111;-78
2022/06/10 07:50:52;;;;;;;9.18;3.72;;;;;;;19.03;65.63;99505.06;4984824;28;20487;-79
2022/06/10 07:53:18;;;;;;;8.10;4.50;;;;;;;18.82;67.87;99501.78;5011437;28;20416;-78
2022/06/10 07:55:45;;;;;;;7.70;3.67;;;;;;;18.99;66.54;99506.72;5027537;28;20018;-79
2022/06/10 07:58:11;;;;;;;10.77;5.00;;;;;;;19.13;65.49;99502.25;5023029;28;20041;-79
2022/06/10 08:00:37;;;;;;;9.30;3.80;;;;;;;19.02;65.28;99496.16;5009149;28;20029;-78
2022/06/10 08:03:03;;;;;;;8.90;3.25;;;;;;;19.30;64.58;99506.13;5012488;28;20038;-78
2022/06/10 08:05:29;;;;;;;7.28;2.95;;;;;;;19.43;62.79;99502.72;5008095;28;20036;-78
2022/06/10 08:07:55;;;;;;;4.88;3.08;;;;;;;19.41;63.63;99510.34;4977556;28;20030;-78
2022/06/10 08:10:27;;;;;;;7.00;3.13;;;;;;;19.41;64.12;99507.63;4993146;28;20129;-78
2022/06/10 08:12:52;;;;;;;8.85;2.80;;;;;;;19.23;60.53;99497.53;5004604;28;20537;-78
2022/06/10 08:15:19;;;;;;;6.75;2.90;;;;;;;19.42;62.81;99497.59;4994518;28;20044;-79
2022/06/10 08:17:46;;;;;;;6.32;2.40;;;;;;;19.67;61.74;99505.41;5010277;28;20033;-78
2022/06/10 08:20:19;;;;;;;8.38;2.40;;;;;;;19.68;59.26;99501.56;5002009;28;20025;-78
2022/06/10 08:22:44;;;;;;;8.38;2.58;;;;;;;19.71;61.03;99506.41;5004836;28;20026;-78
2022/06/10 08:25:11;;;;;;;5.45;2.25;;;;;;;19.71;60.19;99494.78;4992263;28;20338;-78
2022/06/10 08:27:37;;;;;;;8.73;2.17;;;;;;;19.78;60.00;99500.63;5002147;28;20110;-78
2022/06/10 08:30:06;;;;;;;5.13;2.15;;;;;;;19.85;59.76;99499.19;4986374;28;20490;-78
2022/06/10 08:32:31;;;;;;;6.70;2.47;;;;;;;19.90;58.56;99499.09;5010637;28;20034;-78
2022/06/10 08:34:59;;;;;;;3.25;1.88;;;;;;;19.94;59.13;99508.25;5010346;28;20041;-79
2022/06/10 08:37:28;;;;;;;7.15;2.22;;;;;;;19.83;58.90;99476.97;5011029;28;20029;-79
2022/06/10 08:39:53;;;;;;;7.55;2.30;;;;;;;19.86;59.21;99505.38;4988273;28;20038;-78
2022/06/10 08:42:36;;;;;;;7.47;2.35;;;;;;;19.91;59.13;99502.63;4992825;28;20402;-78
2022/06/10 08:45:51;;;;;;;6.28;2.30;;;;;;;19.87;58.17;99505.13;5024668;28;20139;-78
2022/06/10 08:48:20;;;;;;;7.13;2.40;;;;;;;19.95;58.37;99503.63;4949396;28;20045;-78
2022/06/10 08:51:09;;;;;;;7.10;2.60;;;;;;;19.84;58.56;99496.75;5006330;28;20089;-78
2022/06/10 08:53:59;;;;;;;14.00;2.90;;;;;;;19.98;57.79;99495.75;5009534;28;20509;-78
2022/06/10 08:56:34;;;;;;;7.53;1.85;;;;;;;20.02;58.02;99499.47;5009572;28;20116;-78
2022/06/10 08:59:22;;;;;;;5.40;2.65;;;;;;;20.05;57.62;99498.88;5008964;28;20030;-78
2022/06/10 09:02:00;;;;;;;4.75;2.63;;;;;;;20.00;58.21;99492.72;5011628;28;20399;-78
2022/06/10 09:04:46;;;;;;;5.60;2.17;;;;;;;20.26;58.03;99493.97;5006086;28;20036;-78
2022/06/10 09:07:22;;;;;;;4.30;2.10;;;;;;;20.32;57.92;99495.50;5004296;28;20088;-78
2022/06/10 09:09:48;;;;;;;7.18;2.80;;;;;;;20.33;58.17;99501.72;5002737;28;20593;-79
2022/06/10 09:12:30;;;;;;;7.68;2.30;;;;;;;20.35;58.50;99496.81;5011208;28;20034;-78
2022/06/10 09:15:03;;;;;;;5.63;2.40;;;;;;;20.27;58.50;99471.16;5009578;28;20389;-78
2022/06/10 09:17:43;;;;;;;4.55;2.25;;;;;;;20.43;58.02;99485.28;5008586;28;20075;-78
2022/06/10 09:20:20;;;;;;;6.30;2.40;;;;;;;20.48;57.63;99491.44;5005245;28;20045;-78
2022/06/10 09:22:57;;;;;;;7.30;2.60;;;;;;;20.56;57.04;99487.22;5009697;28;20104;-78
2022/06/10 09:25:43;;;;;;;9.05;3.13;;;;;;;20.52;56.58;99478.88;5009795;28;20030;-78
2022/06/10 09:28:08;;;;;;;9.00;2.67;;;;;;;20.58;57.21;99480.41;5006236;28;20114;-78
2022/06/10 09:30:43;;;;;;;6.95;2.92;;;;;;;20.70;57.14;99493.50;5008612;28;20113;-78
2022/06/10 09:33:17;;;;;;;6.18;2.55;;;;;;;20.71;56.82;99503.22;5009258;28;20034;-78
2022/06/10 09:35:49;;;;;;;6.20;2.55;;;;;;;20.62;56.71;99484.13;4999898;28;20060;-78
2022/06/10 09:38:44;;;;;;;7.45;2.58;;;;;;;20.79;56.12;99495.22;4997542;28;20026;-78
2022/06/10 09:41:26;;;;;;;6.43;2.78;;;;;;;20.85;56.10;99502.19;5009784;28;20052;-78
2022/06/10 09:44:03;;;;;;;5.03;2.50;;;;;;;20.98;55.81;99497.06;5002088;28;20038;-78
2022/06/10 09:47:03;;;;;;;5.50;2.50;;;;;;;21.08;55.19;99494.19;5010817;28;20100;-78
2022/06/10 09:49:34;;;;;;;4.40;2.15;;;;;;;21.23;55.15;99491.94;5010194;28;20034;-78
2022/06/10 09:52:30;;;;;;;6.70;2.45;;;;;;;21.24;55.53;99500.91;5007728;28;20429;-78
2022/06/10 09:55:35;;;;;;;9.20;2.88;;;;;;;21.11;55.73;99502.53;5004733;28;20042;-78
2022/06/10 09:58:22;;;;;;;11.38;2.67;;;;;;;20.90;55.22;99491.19;4975162;28;20041;-78
2022/06/10 10:00:54;;;;;;;8.85;2.88;;;;;;;20.84;54.44;99488.88;5009554;28;20029;-78
2022/06/10 10:04:03;;;;;;;7.47;2.72;;;;;;;20.78;54.00;99484.66;5002736;28;20026;-78
2022/06/10 10:07:06;;;;;;;8.15;2.72;;;;;;;20.90;53.48;99485.78;4998023;28;20126;-78
2022/06/10 10:10:14;;;;;;;6.53;2.33;;;;;;;21.05;53.46;99490.16;5004819;28;20066;-78
2022/06/10 10:12:45;;;;;;;7.72;2.35;;;;;;;21.08;52.74;99477.91;5002172;28;20092;-78
2022/06/10 10:15:40;;;;;;;4.03;2.20;;;;;;;21.27;52.17;99479.41;5005608;28;20042;-78
2022/06/10 10:18:21;;;;;;;7.57;2.45;;;;;;;21.44;52.85;99473.34;5002600;28;20117;-79
2022/06/10 10:21:07;;;;;;;9.52;3.17;;;;;;;21.51;52.77;99484.59;5005147;28;20027;-78
2022/06/10 10:23:43;;;;;;;6.38;2.10;;;;;;;21.62;52.74;99472.41;4999177;28;20037;-79
2022/06/10 10:26:27;;;;;;;5.18;2.38;;;;;;;21.72;52.26;99482.22;5010001;28;20129;-78
2022/06/10 10:29:05;;;;;;;5.80;2.55;;;;;;;21.83;51.82;99470.88;5005775;28;20120;-78
2022/06/10 10:31:46;;;;;;;6.05;2.70;;;;;;;21.93;51.92;99467.91;5010608;28;20079;-78
2022/06/10 10:34:19;;;;;;;9.90;2.53;;;;;;;22.08;51.59;99483.06;5012756;28;20040;-78
2022/06/10 10:36:57;;;;;;;5.38;2.03;;;;;;;22.18;51.85;99461.06;5010369;28;20026;-79
2022/06/10 10:39:32;;;;;;;9.82;2.42;;;;;;;22.32;51.27;99473.47;5012631;28;20018;-78
2022/06/10 10:42:02;;;;;;;4.68;2.03;;;;;;;22.25;51.41;99453.28;5012655;28;20065;-78
2022/06/10 10:44:38;;;;;;;7.13;2.88;;;;;;;22.54;50.64;99464.47;5010181;28;20034;-78
2022/06/10 10:47:09;;;;;;;;;;;;;;;22.47;51.46;99476.94;5023096;28;20025;-79
2022/06/10 10:49:42;;;;;;;4.93;1.92;;;;;;;22.78;50.46;99472.34;5012222;28;19971;-78
2022/06/10 10:52:21;;;;;;;4.82;2.15;;;;;;;23.01;49.86;99461.06;5013791;28;20022;-79
2022/06/10 10:54:51;;;;;;;6.45;2.00;;;;;;;23.01;49.93;99457.53;5007332;28;20033;-79
2022/06/10 10:57:29;;;;;;;4.07;2.03;;;;;;;23.11;50.15;99459.97;5002827;28;20036;-78
2022/06/10 11:00:10;;;;;;;6.82;2.35;;;;;;;23.40;49.59;99465.69;5006536;28;20030;-79
2022/06/10 11:02:48;;;;;;;10.48;2.78;;;;;;;23.44;49.54;99461.22;5008480;28;20060;-78
2022/06/10 11:05:19;;;;;;;4.13;2.13;;;;;;;23.65;49.07;99453.25;5011994;28;20025;-79
2022/06/10 11:07:46;;;;;;;4.13;2.10;;;;;;;23.63;49.43;99459.00;5005242;28;20030;-78
2022/06/10 11:10:21;;;;;;;8.25;2.40;;;;;;;23.87;48.23;99455.03;5009603;28;20030;-78
2022/06/10 11:12:47;;;;;;;;;;;;;;;24.05;47.93;99456.66;5013055;28;20040;-79
2022/06/10 11:15:27;;;;;;;8.23;2.60;;;;;;;24.05;48.94;99451.97;5008489;28;19925;-79
2022/06/10 11:17:55;;;;;;;8.25;2.22;;;;;;;24.15;48.03;99439.94;5022815;28;20099;-79
2022/06/10 11:20:27;;;;;;;5.95;2.00;;;;;;;24.25;48.11;99440.41;5012650;28;20073;-79
2022/06/10 11:23:17;;;;;;;4.78;2.70;;;;;;;24.50;47.86;99446.94;5009214;28;20057;-79
2022/06/10 11:25:42;;;;;;;2.08;1.75;;;;;;;24.54;47.76;99443.25;5000243;28;20034;-79
2022/06/10 11:28:22;;;;;;;5.00;1.98;;;;;;;24.20;48.12;99447.97;4990946;28;20045;-79
2022/06/10 11:30:49;;;;;;;8.82;2.50;;;;;;;23.42;48.68;99460.72;5008368;28;20248;-78
2022/06/10 11:33:29;;;;;;;5.68;2.67;;;;;;;23.39;48.66;99442.31;4993074;28;20077;-78
2022/06/10 11:36:06;;;;;;;6.97;2.45;;;;;;;23.58;47.87;99447.47;4999663;28;20053;-78
2022/06/10 11:38:35;;;;;;;6.63;2.17;;;;;;;23.76;47.63;99428.06;4998887;28;20066;-78
2022/06/10 11:41:20;;;;;;;6.10;2.40;;;;;;;23.49;47.71;99424.84;4991054;28;20029;-78
2022/06/10 11:43:51;;;;;;;8.35;2.05;;;;;;;23.23;48.08;99443.84;5012563;28;20034;-78
2022/06/10 11:46:36;;;;;;;6.65;2.75;;;;;;;23.33;47.69;99437.31;5011342;28;20460;-79
2022/06/10 11:49:31;;;;;;;6.60;2.00;;;;;;;23.54;46.59;99432.88;5003549;28;20475;-79
2022/06/10 11:52:13;;;;;;;5.57;1.90;;;;;;;23.80;46.71;99429.03;5005980;28;20045;-79
2022/06/10 11:54:58;;;;;;;5.30;2.70;;;;;;;23.85;46.21;99425.34;5011222;28;20135;-78
2022/06/10 12:00:59;;;;;;;3.78;1.90;;;;;;;24.10;45.77;99426.47;5009408;28;20076;-78
2022/06/10 12:03:43;;;;;;;3.97;2.53;;;;;;;23.68;45.84;99414.41;5002963;28;20482;-78
2022/06/10 12:06:18;;;;;;;6.82;2.58;;;;;;;23.81;45.60;99425.19;5004744;28;20532;-78
2022/06/10 12:08:49;;;;;;;2.35;1.60;;;;;;;24.16;45.03;99420.53;5009948;28;20030;-78
2022/06/10 12:11:40;;;;;;;3.95;1.95;;;;;;;23.96;45.44;99417.66;5011314;28;20033;-78
2022/06/10 12:14:17;;;;;;;3.97;2.00;;;;;;;23.68;45.70;99417.16;5006145;28;20064;-78